Time;durP1;ratioP1;P1;durP2;ratioP2;P2;SDS_P1;SDS_P2;PMS_P1;PMS_P2;Temp;Humidity;BMP_temperature;BMP_pressure;BME280_temperature;BME280_humidity;BME280_pressure;Samples;Min_cycle;Max_cycle;Signal;HPM_P1;HPM_P2
2022/06/14 00:01:48;;;;;;;0.30;0.20;;;;;;;19.88;57.98;97168.25;10373554;28;20515;-21
2022/06/14 00:06:48;;;;;;;0.10;0.10;;;;;;;19.85;58.02;97170.81;10374051;28;20033;-21
2022/06/14 00:11:49;;;;;;;0.10;0.10;;;;;;;19.80;58.10;97175.88;10373664;28;20045;-22
2022/06/14 00:16:49;;;;;;;0.30;0.30;;;;;;;19.80;57.85;97172.47;10373265;28;20064;-21
2022/06/14 00:21:50;;;;;;;0.20;0.20;;;;;;;19.79;57.91;97165.72;10372125;28;20034;-21
2022/06/14 00:26:50;;;;;;;0.25;0.22;;;;;;;19.77;58.12;97165.69;10371273;28;20042;-21
2022/06/14 00:31:50;;;;;;;0.37;0.30;;;;;;;19.76;58.00;97150.47;10372377;28;20030;-20
2022/06/14 00:36:55;;;;;;;0.30;0.20;;;;;;;19.77;57.91;97157.25;10392931;28;20032;-21
2022/06/14 00:41:56;;;;;;;0.30;0.30;;;;;;;19.79;58.38;97160.63;10370026;28;20030;-21
2022/06/14 00:47:13;;;;;;;0.10;0.10;;;;;;;20.02;58.85;97153.88;10369842;28;20038;-20
2022/06/14 00:52:27;;;;;;;0.10;0.10;;;;;;;20.08;57.85;97153.94;10387212;28;20384;-20
2022/06/14 00:57:32;;;;;;;0.20;0.20;;;;;;;19.93;57.77;97151.34;10393916;28;20076;-22
2022/06/14 01:02:38;;;;;;;0.20;0.20;;;;;;;19.85;57.87;97146.22;10369136;28;20064;-20
2022/06/14 01:07:43;;;;;;;1.65;0.45;;;;;;;19.80;58.01;97134.38;10368983;28;20069;-20
2022/06/14 01:12:48;;;;;;;0.20;0.20;;;;;;;19.81;57.94;97136.06;10368597;28;20036;-20
2022/06/14 01:17:51;;;;;;;0.22;0.15;;;;;;;19.80;58.15;97131.81;10368645;28;20034;-21
2022/06/14 01:22:52;;;;;;;0.20;0.20;;;;;;;19.78;58.05;97124.22;10368523;28;20042;-20
2022/06/14 01:27:54;;;;;;;0.63;0.30;;;;;;;19.78;57.85;97125.91;10368752;28;20057;-20
2022/06/14 01:33:02;;;;;;;0.30;0.30;;;;;;;19.77;57.83;97131.84;10378294;28;20037;-20
2022/06/14 01:38:07;;;;;;;0.40;0.30;;;;;;;19.78;57.89;97123.38;10381970;28;20124;-20
2022/06/14 01:43:40;;;;;;;0.20;0.17;;;;;;;19.99;59.29;97119.16;10367488;28;20030;-20
2022/06/14 01:54:55;;;;;;;0.17;0.17;;;;;;;19.87;57.69;97109.00;10353808;28;20125;-20
2022/06/14 02:00:09;;;;;;;0.17;0.17;;;;;;;19.82;58.04;97107.25;10367110;28;20063;-21
2022/06/14 02:05:20;;;;;;;;;;;;;;;19.79;57.88;97108.13;10367745;28;20049;-21
2022/06/14 02:10:31;;;;;;;0.30;0.30;;;;;;;19.77;57.73;97111.50;10407971;28;19920;-22
2022/06/14 02:15:59;;;;;;;0.40;0.30;;;;;;;19.76;57.81;97109.81;10368908;28;20030;-20
2022/06/14 02:21:15;;;;;;;0.20;0.20;;;;;;;19.76;57.91;97104.75;10375001;28;20076;-20
2022/06/14 02:26:27;;;;;;;0.30;0.30;;;;;;;19.76;57.90;97107.28;10374569;28;20072;-21
2022/06/14 02:31:33;;;;;;;0.10;0.10;;;;;;;19.76;57.73;97104.75;10375501;28;20022;-20
2022/06/14 02:36:41;;;;;;;0.13;0.10;;;;;;;19.86;59.49;97108.97;10403901;28;20099;-20
2022/06/14 02:41:54;;;;;;;0.22;0.20;;;;;;;20.08;58.59;97098.00;10374387;28;20038;-20
2022/06/14 02:47:05;;;;;;;0.10;0.10;;;;;;;20.00;58.25;97089.50;10374534;28;20030;-20
2022/06/14 02:52:13;;;;;;;0.22;0.22;;;;;;;19.87;57.62;97098.81;10391530;28;20045;-21
2022/06/14 02:57:52;;;;;;;0.20;0.20;;;;;;;19.83;57.87;97096.28;10400370;28;20042;-19
2022/06/14 03:03:09;;;;;;;0.32;0.32;;;;;;;19.80;57.78;97091.19;10373681;28;20485;-20
2022/06/14 03:08:13;;;;;;;;;;;;;;;19.77;57.68;97093.72;10374266;28;20416;-21
2022/06/14 03:13:32;;;;;;;0.32;0.22;;;;;;;19.76;57.97;97084.41;10373399;28;20403;-21
2022/06/14 03:18:49;;;;;;;0.20;0.20;;;;;;;19.75;57.92;97088.63;10373250;28;20484;-21
2022/06/14 03:24:08;;;;;;;0.30;0.30;;;;;;;19.76;57.98;97094.56;10373432;28;20121;-22
2022/06/14 03:29:15;;;;;;;0.30;0.30;;;;;;;19.77;57.96;97083.56;10372343;28;20084;-20
2022/06/14 03:34:29;;;;;;;1.05;0.30;;;;;;;19.83;59.27;97065.78;10393046;28;20029;-20
2022/06/14 03:39:34;;;;;;;0.17;0.17;;;;;;;20.08;58.29;97082.75;10372510;28;20025;-21
2022/06/14 03:44:34;;;;;;;0.20;0.20;;;;;;;19.93;57.68;97080.19;10371637;28;20421;-21
2022/06/14 03:49:40;;;;;;;0.47;0.40;;;;;;;19.86;57.68;97070.88;10371862;28;20037;-20
2022/06/14 03:54:49;;;;;;;0.30;0.30;;;;;;;19.83;57.88;97078.50;10409627;28;20033;-20
2022/06/14 04:00:25;;;;;;;0.13;0.13;;;;;;;19.79;57.80;97077.66;10377334;28;20124;-20
2022/06/14 04:05:47;;;;;;;0.30;0.28;;;;;;;19.78;57.71;97067.47;10371243;28;20096;-21
2022/06/14 04:11:08;;;;;;;0.20;0.20;;;;;;;19.76;57.92;97069.16;10371175;28;20034;-20
2022/06/14 04:16:20;;;;;;;0.88;0.30;;;;;;;19.77;57.74;97070.88;10371051;28;20038;-20
2022/06/14 04:21:42;;;;;;;0.30;0.30;;;;;;;19.77;57.70;97081.03;10370608;28;20076;-21
2022/06/14 04:26:43;;;;;;;0.57;0.30;;;;;;;19.75;57.92;97077.66;10370316;28;20038;-20
2022/06/14 04:32:03;;;;;;;0.57;0.20;;;;;;;19.98;58.97;97070.84;10371202;28;20194;-21
2022/06/14 04:37:27;;;;;;;0.40;0.30;;;;;;;20.05;57.73;97077.66;10389914;28;20026;-22
2022/06/14 04:42:45;;;;;;;0.25;0.20;;;;;;;19.92;57.97;97078.50;10369149;28;20408;-20
2022/06/14 04:47:53;;;;;;;0.35;0.20;;;;;;;19.85;57.86;97071.72;10370123;28;20045;-20
2022/06/14 04:52:59;;;;;;;0.30;0.30;;;;;;;19.83;57.90;97068.34;10392573;28;20034;-21
2022/06/14 04:58:05;;;;;;;;;;;;;;;19.80;57.77;97069.16;10390183;28;20026;-21
2022/06/14 05:03:13;;;;;;;0.40;0.40;;;;;;;19.77;57.70;97065.78;10368817;28;20364;-21
2022/06/14 05:08:23;;;;;;;0.25;0.25;;;;;;;19.77;57.90;97065.78;10369278;28;20034;-20
2022/06/14 05:13:36;;;;;;;0.50;0.40;;;;;;;19.69;57.75;97052.22;10367914;28;20092;-21
2022/06/14 05:19:16;;;;;;;0.22;0.22;;;;;;;19.77;57.67;97070.88;10368674;28;20459;-20
2022/06/14 05:24:18;;;;;;;0.70;0.30;;;;;;;19.77;58.47;97063.25;10353194;28;20072;-20
2022/06/14 05:29:33;;;;;;;0.10;0.10;;;;;;;19.94;58.65;97054.75;10367865;28;20060;-21
2022/06/14 05:34:39;;;;;;;0.10;0.10;;;;;;;20.03;57.56;97059.00;10380989;28;20412;-20
2022/06/14 05:39:51;;;;;;;0.20;0.20;;;;;;;19.90;57.76;97064.91;10368662;28;20096;-20
2022/06/14 05:44:57;;;;;;;0.20;0.20;;;;;;;19.84;57.74;97063.22;10367804;28;20414;-21
2022/06/14 05:50:00;;;;;;;0.20;0.20;;;;;;;19.80;57.76;97068.31;10367085;28;20041;-21
2022/06/14 05:55:15;;;;;;;0.30;0.30;;;;;;;19.78;57.80;97064.94;10407978;28;20029;-21
2022/06/14 06:00:22;;;;;;;0.50;0.20;;;;;;;19.77;57.89;97070.88;10369848;28;20045;-21
2022/06/14 06:05:34;;;;;;;;;;;;;;;19.76;57.81;97066.63;10367532;28;20528;-22
2022/06/14 06:10:40;;;;;;;0.52;0.40;;;;;;;19.74;57.79;97064.06;10367401;28;19913;-21
2022/06/14 06:15:48;;;;;;;0.53;0.50;;;;;;;19.74;57.77;97071.69;10367381;28;20117;-20
2022/06/14 06:21:05;;;;;;;0.38;0.38;;;;;;;19.78;59.03;97059.84;10367139;28;20159;-20
2022/06/14 06:26:06;;;;;;;0.20;0.20;;;;;;;20.03;58.70;97059.00;10366491;28;20034;-20
2022/06/14 06:31:17;;;;;;;0.40;0.30;;;;;;;19.99;57.70;97052.19;10367136;28;20443;-20
2022/06/14 06:36:57;;;;;;;0.30;0.30;;;;;;;19.86;57.56;97050.53;10396405;28;20400;-20
2022/06/14 06:42:04;;;;;;;0.50;0.30;;;;;;;19.81;57.87;97052.22;10335876;28;20049;-21
2022/06/14 06:47:21;;;;;;;0.30;0.30;;;;;;;19.79;57.85;97039.53;10365488;28;20048;-20
2022/06/14 06:52:29;;;;;;;0.75;0.40;;;;;;;19.77;57.85;97050.53;10385722;28;20120;-21
2022/06/14 06:57:33;;;;;;;0.25;0.20;;;;;;;19.77;57.94;97051.38;10390981;28;20040;-19
2022/06/14 07:02:44;;;;;;;0.30;0.30;;;;;;;19.75;57.73;97044.63;10368987;28;20037;-21
2022/06/14 07:07:51;;;;;;;0.38;0.30;;;;;;;19.77;57.73;97048.81;10373529;28;20108;-20
2022/06/14 07:13:16;;;;;;;0.30;0.30;;;;;;;19.77;57.86;97048.00;10373510;28;20072;-20
2022/06/14 07:18:24;;;;;;;0.52;0.35;;;;;;;19.88;59.29;97044.59;10372624;28;20034;-20
2022/06/14 07:23:34;;;;;;;0.13;0.13;;;;;;;20.08;58.85;97042.91;10372387;28;20034;-20
2022/06/14 07:29:00;;;;;;;0.22;0.22;;;;;;;19.97;57.73;97038.66;10372714;28;20041;-21
2022/06/14 07:34:01;;;;;;;0.30;0.30;;;;;;;19.84;57.69;97034.44;10381483;28;20044;-21
2022/06/14 07:39:07;;;;;;;0.30;0.22;;;;;;;19.83;57.75;97040.38;10377661;28;20416;-20
2022/06/14 07:44:15;;;;;;;0.23;0.23;;;;;;;19.81;57.72;97036.97;10373108;28;20042;-20
2022/06/14 07:49:26;;;;;;;0.30;0.28;;;;;;;19.79;57.65;97033.59;10372689;28;20095;-21
2022/06/14 07:54:39;;;;;;;0.47;0.45;;;;;;;19.78;57.66;97047.16;10372626;28;20127;-21
2022/06/14 07:59:49;;;;;;;0.47;0.40;;;;;;;19.79;57.65;97039.53;10371266;28;20050;-21
2022/06/14 08:04:56;;;;;;;0.40;0.30;;;;;;;19.77;57.69;97036.13;10370908;28;20436;-20
2022/06/14 08:10:11;;;;;;;0.52;0.38;;;;;;;19.77;57.93;97022.59;10371046;28;20072;-21
2022/06/14 08:15:22;;;;;;;0.30;0.30;;;;;;;19.87;59.03;97022.59;10370967;28;20050;-21
2022/06/14 08:20:39;;;;;;;0.30;0.30;;;;;;;20.02;58.56;97016.63;10370703;28;20053;-21
2022/06/14 08:25:44;;;;;;;0.20;0.20;;;;;;;19.93;57.68;97024.28;10369937;28;20107;-20
2022/06/14 08:31:07;;;;;;;0.30;0.30;;;;;;;19.86;57.87;97017.50;10370968;28;20033;-20
2022/06/14 08:36:13;;;;;;;0.45;0.30;;;;;;;19.81;57.98;97012.41;10390807;28;20536;-21
2022/06/14 08:41:50;;;;;;;0.47;0.40;;;;;;;19.81;57.72;97009.03;10370428;28;20034;-20
2022/06/14 08:47:06;;;;;;;0.20;0.20;;;;;;;19.80;57.83;97004.78;10370086;28;20280;-21
2022/06/14 08:52:25;;;;;;;0.40;0.30;;;;;;;19.78;57.69;97001.41;10386074;28;20284;-20
2022/06/14 08:57:44;;;;;;;0.50;0.40;;;;;;;19.79;57.73;96995.47;10394389;28;20293;-20
2022/06/14 09:03:21;;;;;;;0.43;0.32;;;;;;;19.79;57.47;96998.03;10368543;28;20065;-20
2022/06/14 09:08:37;;;;;;;;;;;;;;;19.78;58.03;96986.16;10370078;28;20033;-22
2022/06/14 09:14:02;;;;;;;0.30;0.30;;;;;;;20.02;58.54;96993.75;10369054;28;19917;-21
2022/06/14 09:19:37;;;;;;;0.30;0.30;;;;;;;20.05;57.93;96986.16;10368637;28;20040;-20
2022/06/14 09:25:27;;;;;;;0.20;0.20;;;;;;;19.92;57.59;96981.94;10368021;28;20041;-19
2022/06/14 09:30:40;;;;;;;0.30;0.30;;;;;;;19.86;57.59;96979.38;10368291;28;20550;-20
2022/06/14 09:35:55;;;;;;;0.40;0.40;;;;;;;19.83;57.81;96977.69;10382661;28;20048;-20
2022/06/14 09:41:25;;;;;;;0.45;0.38;;;;;;;19.82;57.75;96982.75;10368387;28;20034;-21
2022/06/14 09:47:02;;;;;;;0.60;0.43;;;;;;;19.81;57.76;96970.91;10367956;28;20125;-21
2022/06/14 09:52:29;;;;;;;0.57;0.40;;;;;;;19.80;57.88;96956.53;10384207;28;20458;-21
2022/06/14 09:57:54;;;;;;;0.40;0.40;;;;;;;19.80;57.81;96959.91;10392105;28;20485;-20
2022/06/14 10:03:10;;;;;;;0.20;0.20;;;;;;;19.81;57.89;96956.53;10367450;28;20042;-20
2022/06/14 10:08:44;;;;;;;0.47;0.30;;;;;;;19.92;58.79;96938.72;10368407;28;20048;-21
2022/06/14 10:13:57;;;;;;;0.20;0.20;;;;;;;20.15;58.08;96936.97;10367012;28;20034;-21
2022/06/14 10:19:10;;;;;;;0.43;0.30;;;;;;;19.97;57.89;96926.84;10367440;28;20049;-20
2022/06/14 10:24:32;;;;;;;0.10;0.10;;;;;;;19.89;57.78;96933.63;10367259;28;20393;-23
2022/06/14 10:29:52;;;;;;;0.32;0.20;;;;;;;19.85;57.97;96934.50;10367145;28;20034;-23
2022/06/14 10:35:22;;;;;;;0.40;0.40;;;;;;;19.83;57.77;96929.41;10379010;28;20042;-23
2022/06/14 10:40:50;;;;;;;0.70;0.32;;;;;;;19.84;57.96;96920.09;10374319;28;20492;-22
2022/06/14 10:45:57;;;;;;;0.47;0.47;;;;;;;19.83;57.93;96915.88;10374582;28;20038;-22
2022/06/14 10:51:24;;;;;;;0.50;0.50;;;;;;;19.81;57.74;96902.31;10381320;28;20104;-22
2022/06/14 10:56:35;;;;;;;0.40;0.40;;;;;;;19.80;57.74;96893.84;10407610;28;20484;-23
2022/06/14 11:01:46;;;;;;;0.30;0.30;;;;;;;19.82;58.32;96896.38;10373822;28;20033;-24
2022/06/14 11:06:56;;;;;;;0.10;0.10;;;;;;;20.06;58.56;96891.25;10373460;28;20049;-21
2022/06/14 11:12:26;;;;;;;0.17;0.17;;;;;;;20.08;57.61;96885.31;10373934;28;20034;-22
2022/06/14 11:17:42;;;;;;;0.77;0.40;;;;;;;19.95;57.82;96880.25;10373879;28;20112;-23
2022/06/14 11:22:45;;;;;;;0.40;0.30;;;;;;;19.90;58.13;96875.19;10372620;28;20481;-23
2022/06/14 11:27:52;;;;;;;0.32;0.32;;;;;;;19.85;58.06;96868.44;10372679;28;20081;-23
2022/06/14 11:32:55;;;;;;;0.40;0.40;;;;;;;19.86;57.77;96867.59;10382246;28;20484;-23
2022/06/14 11:37:58;;;;;;;0.65;0.40;;;;;;;19.84;57.99;96859.13;10384268;28;20467;-23
2022/06/14 11:43:34;;;;;;;0.90;0.32;;;;;;;19.83;57.80;96850.66;10372033;28;20038;-23
2022/06/14 11:48:59;;;;;;;0.38;0.35;;;;;;;19.83;57.87;96840.47;10360476;28;20527;-23
2022/06/14 11:54:15;;;;;;;0.40;0.40;;;;;;;19.82;57.67;96845.56;10403760;28;20120;-24
2022/06/14 11:59:24;;;;;;;1.10;0.38;;;;;;;19.86;59.89;96847.25;10381919;28;20120;-22
2022/06/14 12:05:04;;;;;;;0.20;0.20;;;;;;;20.09;58.44;96833.63;10371532;28;20045;-23
2022/06/14 12:10:04;;;;;;;0.20;0.20;;;;;;;20.02;58.62;96833.66;10371672;28;20247;-22
2022/06/14 12:15:23;;;;;;;0.73;0.32;;;;;;;19.93;57.92;96820.97;10371117;28;20448;-22
2022/06/14 12:20:25;;;;;;;0.32;0.30;;;;;;;19.89;57.85;96816.75;10370294;28;20045;-23
2022/06/14 12:31:14;;;;;;;0.40;0.30;;;;;;;19.83;57.70;96811.72;10370547;28;20030;-22
2022/06/14 12:36:21;;;;;;;0.40;0.40;;;;;;;19.84;57.79;96809.13;10389361;28;20076;-23
2022/06/14 12:41:34;;;;;;;0.63;0.63;;;;;;;19.84;57.89;96803.22;10370090;28;20114;-21
2022/06/14 12:46:42;;;;;;;0.30;0.30;;;;;;;19.83;58.00;96796.47;10369898;28;20045;-22
2022/06/14 12:52:07;;;;;;;0.38;0.35;;;;;;;19.83;58.03;96799.00;10383507;28;20040;-22
2022/06/14 12:57:07;;;;;;;0.20;0.15;;;;;;;19.99;59.41;96790.44;10396820;28;20033;-23
2022/06/14 13:02:24;;;;;;;0.20;0.13;;;;;;;20.18;58.49;96781.91;10368813;28;20034;-22
2022/06/14 13:08:01;;;;;;;0.30;0.28;;;;;;;20.01;57.96;96786.22;10369904;28;20034;-24
2022/06/14 13:13:14;;;;;;;0.35;0.32;;;;;;;19.93;57.84;96776.06;10368626;28;20048;-22
2022/06/14 13:18:39;;;;;;;0.32;0.32;;;;;;;19.91;57.86;96774.41;10369143;28;20076;-24
2022/06/14 13:23:48;;;;;;;0.40;0.40;;;;;;;19.90;58.19;96771.00;10368350;28;20037;-22
2022/06/14 13:29:17;;;;;;;0.50;0.50;;;;;;;19.88;57.76;96766.78;10368826;28;20037;-22
2022/06/14 13:34:38;;;;;;;0.30;0.30;;;;;;;19.87;58.21;96771.03;10385492;28;20059;-22
2022/06/14 13:40:11;;;;;;;0.38;0.38;;;;;;;19.87;57.88;96762.56;10383562;28;20034;-23
2022/06/14 13:45:24;;;;;;;0.47;0.47;;;;;;;19.87;57.88;96760.88;10397607;28;20438;-23
2022/06/14 13:50:35;;;;;;;0.40;0.35;;;;;;;19.91;60.10;96756.63;10405197;28;20877;-23
2022/06/14 13:55:50;;;;;;;0.30;0.30;;;;;;;20.16;58.74;96750.56;10367137;28;20481;-23
2022/06/14 14:00:50;;;;;;;0.30;0.30;;;;;;;20.12;58.86;96748.91;10367892;28;20048;-23
2022/06/14 14:06:12;;;;;;;0.22;0.22;;;;;;;20.00;58.20;96749.78;10367500;28;20030;-22
2022/06/14 14:11:32;;;;;;;0.25;0.25;;;;;;;19.95;57.88;96743.03;10370054;28;20041;-22
2022/06/14 14:16:42;;;;;;;0.55;0.40;;;;;;;19.93;57.99;96737.13;10376292;28;20113;-24
2022/06/14 14:21:50;;;;;;;0.40;0.40;;;;;;;19.92;58.08;96735.44;10375207;28;20042;-22
2022/06/14 14:26:58;;;;;;;0.30;0.30;;;;;;;19.91;58.05;96741.38;10374913;28;20396;-22
2022/06/14 14:32:06;;;;;;;0.50;0.50;;;;;;;19.90;58.20;96732.91;10377336;28;20493;-23
2022/06/14 14:37:28;;;;;;;0.40;0.38;;;;;;;19.90;58.13;96739.66;10387115;28;20033;-22
2022/06/14 14:42:29;;;;;;;0.50;0.30;;;;;;;19.88;57.99;96728.66;10373736;28;20076;-22
2022/06/14 14:47:43;;;;;;;0.40;0.32;;;;;;;19.98;60.25;96736.25;10375277;28;20045;-22
2022/06/14 14:52:45;;;;;;;0.30;0.30;;;;;;;20.21;58.42;96739.53;10374054;28;20038;-23
2022/06/14 14:58:15;;;;;;;0.20;0.17;;;;;;;20.08;58.36;96732.81;10373602;28;20061;-22
2022/06/14 15:09:03;;;;;;;0.30;0.20;;;;;;;19.95;58.19;96726.09;10372597;28;20033;-22
2022/06/14 15:14:16;;;;;;;0.52;0.40;;;;;;;19.94;57.88;96721.03;10372460;28;20037;-22
2022/06/14 15:24:48;;;;;;;0.30;0.30;;;;;;;19.90;57.99;96714.25;10371638;28;20114;-22
2022/06/14 15:29:50;;;;;;;0.32;0.32;;;;;;;19.91;57.96;96718.50;10372316;28;20038;-22
2022/06/14 15:34:53;;;;;;;0.40;0.40;;;;;;;19.91;58.20;96718.50;10398358;28;20484;-22
2022/06/14 15:40:21;;;;;;;0.30;0.30;;;;;;;19.90;58.24;96714.25;10373797;28;20416;-22
2022/06/14 15:45:43;;;;;;;0.43;0.40;;;;;;;20.05;59.49;96709.97;10371826;28;20492;-23
2022/06/14 15:50:47;;;;;;;0.20;0.20;;;;;;;20.18;57.83;96692.94;10377014;28;20204;-22
2022/06/14 15:55:50;;;;;;;0.20;0.20;;;;;;;20.06;58.68;96695.56;10410336;28;20021;-22
2022/06/14 16:00:58;;;;;;;0.60;0.40;;;;;;;19.97;58.19;96695.56;10371300;28;20044;-22
2022/06/14 16:06:03;;;;;;;0.30;0.30;;;;;;;19.94;57.94;96698.16;10370849;28;20042;-23
2022/06/14 16:11:08;;;;;;;0.30;0.30;;;;;;;19.92;58.02;96700.69;10371047;28;20528;-22
2022/06/14 16:16:31;;;;;;;0.63;0.40;;;;;;;19.90;57.75;96697.31;10371694;28;20034;-23
2022/06/14 16:21:39;;;;;;;0.22;0.22;;;;;;;19.89;58.17;96694.78;10370342;28;20124;-24
2022/06/14 16:27:01;;;;;;;0.30;0.30;;;;;;;19.89;57.96;96692.25;10370353;28;20040;-22
2022/06/14 16:32:08;;;;;;;0.43;0.40;;;;;;;19.86;58.11;96685.47;10373212;28;20049;-23
2022/06/14 16:37:19;;;;;;;0.30;0.30;;;;;;;19.90;58.76;96682.06;10379349;28;20043;-22
2022/06/14 16:42:25;;;;;;;0.10;0.10;;;;;;;20.14;58.85;96683.63;10369830;28;20034;-22
2022/06/14 16:47:58;;;;;;;0.10;0.10;;;;;;;20.19;58.04;96677.66;10370177;28;20049;-21
2022/06/14 16:53:11;;;;;;;0.28;0.28;;;;;;;20.04;58.39;96674.38;10369730;28;20598;-20
2022/06/14 16:58:30;;;;;;;1.00;0.30;;;;;;;19.98;57.98;96674.41;10369183;28;20052;-21
2022/06/14 17:03:49;;;;;;;0.43;0.40;;;;;;;19.94;58.08;96668.47;10368854;28;20210;-20
2022/06/14 17:09:01;;;;;;;0.30;0.30;;;;;;;19.91;58.05;96672.78;10369005;28;20033;-21
2022/06/14 17:14:14;;;;;;;0.45;0.40;;;;;;;19.86;57.87;96665.16;10367999;28;20072;-21
2022/06/14 17:19:44;;;;;;;0.55;0.55;;;;;;;19.89;58.03;96664.28;10368693;28;20049;-20
2022/06/14 17:25:00;;;;;;;0.30;0.30;;;;;;;19.91;57.90;96670.22;10367854;28;20042;-21
2022/06/14 17:30:13;;;;;;;0.50;0.27;;;;;;;19.90;58.13;96677.00;10368622;28;20038;-21
2022/06/14 17:35:27;;;;;;;0.20;0.20;;;;;;;20.00;59.94;96670.16;10379988;28;20029;-21
2022/06/14 17:40:31;;;;;;;0.10;0.10;;;;;;;20.22;58.62;96670.03;10368630;28;20030;-20
2022/06/14 17:45:38;;;;;;;0.25;0.25;;;;;;;20.13;58.52;96665.03;10367751;28;20173;-20
2022/06/14 17:50:52;;;;;;;0.20;0.20;;;;;;;20.03;58.24;96667.59;10371146;28;20039;-22
2022/06/14 17:56:05;;;;;;;0.20;0.20;;;;;;;19.97;58.08;96662.53;10405173;28;20112;-21
2022/06/14 18:01:11;;;;;;;0.43;0.25;;;;;;;19.94;57.96;96667.66;10368476;28;20029;-20
2022/06/14 18:06:14;;;;;;;0.22;0.20;;;;;;;19.92;58.05;96659.22;10367192;28;20044;-21
2022/06/14 18:11:14;;;;;;;0.40;0.30;;;;;;;19.91;57.99;96657.53;10367656;28;20064;-21
2022/06/14 18:16:45;;;;;;;0.50;0.50;;;;;;;19.90;57.97;96660.88;10367262;28;20037;-21
2022/06/14 18:21:46;;;;;;;0.32;0.25;;;;;;;19.86;58.07;96657.53;10366169;28;20042;-22
2022/06/14 18:26:49;;;;;;;0.40;0.40;;;;;;;19.90;58.02;96668.50;10366973;28;20052;-21
2022/06/14 18:31:59;;;;;;;0.20;0.20;;;;;;;20.01;59.28;96661.69;10368839;28;20026;-22
2022/06/14 18:37:21;;;;;;;0.10;0.10;;;;;;;20.22;58.70;96675.13;10390101;28;20042;-21
2022/06/14 18:42:21;;;;;;;0.10;0.10;;;;;;;20.08;58.44;96656.56;10367110;28;20033;-22
2022/06/14 18:47:29;;;;;;;0.30;0.30;;;;;;;19.98;58.08;96665.09;10366821;28;20444;-21
2022/06/14 18:52:38;;;;;;;0.30;0.30;;;;;;;19.95;57.95;96669.34;10386813;28;20052;-22
2022/06/14 18:57:47;;;;;;;0.30;0.30;;;;;;;19.93;57.88;96671.88;10391472;28;20038;-22
2022/06/14 19:02:47;;;;;;;0.20;0.20;;;;;;;19.91;57.93;96665.16;10374305;28;20037;-21
2022/06/14 19:08:00;;;;;;;0.40;0.40;;;;;;;19.89;57.84;96657.53;10373899;28;20033;-21
2022/06/14 19:13:29;;;;;;;0.38;0.32;;;;;;;19.90;57.93;96663.44;10373454;28;20381;-21
2022/06/14 19:19:07;;;;;;;0.30;0.30;;;;;;;19.90;57.75;96660.88;10373567;28;20042;-22
2022/06/14 19:24:17;;;;;;;0.50;0.40;;;;;;;19.89;57.85;96654.13;10372592;28;20046;-21
2022/06/14 19:29:40;;;;;;;0.20;0.20;;;;;;;20.14;58.63;96664.16;10373042;28;20045;-20
2022/06/14 19:34:57;;;;;;;0.20;0.20;;;;;;;20.18;58.11;96662.44;10383966;28;20116;-21
2022/06/14 19:40:00;;;;;;;;;;;;;;;20.04;58.42;96666.75;10373107;28;20105;-22
2022/06/14 19:45:11;;;;;;;0.20;0.20;;;;;;;19.96;57.92;96676.09;10372348;28;19918;-22
2022/06/14 19:50:20;;;;;;;0.40;0.30;;;;;;;19.93;57.86;96676.97;10373776;28;20038;-22
2022/06/14 19:55:32;;;;;;;0.30;0.30;;;;;;;19.92;57.89;96674.47;10413184;28;20047;-21
2022/06/14 20:00:40;;;;;;;0.40;0.30;;;;;;;19.92;57.98;96679.53;10372111;28;20030;-22
2022/06/14 20:05:43;;;;;;;0.30;0.30;;;;;;;19.87;58.28;96678.72;10371580;28;20412;-22
2022/06/14 20:10:50;;;;;;;0.47;0.30;;;;;;;19.88;57.77;96678.72;10371349;28;20037;-21
2022/06/14 20:16:05;;;;;;;0.30;0.30;;;;;;;19.89;57.94;96682.94;10371126;28;20444;-21
2022/06/14 20:21:10;;;;;;;0.20;0.20;;;;;;;19.93;60.42;96683.75;10371273;28;20063;-22
2022/06/14 20:26:12;;;;;;;0.40;0.40;;;;;;;20.16;58.62;96676.84;10371240;28;20084;-21
2022/06/14 20:31:16;;;;;;;0.20;0.20;;;;;;;20.16;58.52;96692.09;10370912;28;20407;-22
2022/06/14 20:36:38;;;;;;;0.30;0.30;;;;;;;20.03;58.01;96682.84;10383845;28;20037;-21
2022/06/14 20:41:40;;;;;;;0.20;0.20;;;;;;;19.97;58.01;96688.81;10369824;28;20558;-20
2022/06/14 20:46:41;;;;;;;0.30;0.30;;;;;;;19.95;57.95;96692.22;10369264;28;20113;-21
2022/06/14 20:51:49;;;;;;;0.40;0.40;;;;;;;19.94;57.82;96688.00;10383401;28;20037;-21
2022/06/14 20:56:59;;;;;;;0.22;0.22;;;;;;;19.93;57.90;96689.66;10399862;28;20038;-21
2022/06/14 21:02:00;;;;;;;0.75;0.60;;;;;;;19.93;58.21;96681.22;10370021;28;20479;-21
2022/06/14 21:07:01;;;;;;;0.30;0.30;;;;;;;19.91;57.97;96680.41;10368739;28;20065;-21
2022/06/14 21:12:03;;;;;;;0.40;0.40;;;;;;;19.90;58.09;96665.97;10369534;28;20308;-22
2022/06/14 21:17:04;;;;;;;0.40;0.20;;;;;;;20.00;60.21;96675.25;10368940;28;20449;-21
2022/06/14 21:22:12;;;;;;;0.20;0.20;;;;;;;20.23;58.56;96675.94;10366537;28;20118;-21
2022/06/14 21:27:19;;;;;;;0.20;0.10;;;;;;;20.19;58.49;96679.38;10368166;28;20507;-21
2022/06/14 21:32:22;;;;;;;0.30;0.20;;;;;;;20.06;58.06;96667.59;10374097;28;20065;-21
2022/06/14 21:37:34;;;;;;;0.20;0.20;;;;;;;20.00;57.96;96670.16;10390969;28;20044;-22
2022/06/14 21:42:34;;;;;;;0.22;0.22;;;;;;;19.96;57.92;96676.09;10368251;28;20065;-20
2022/06/14 21:47:35;;;;;;;0.33;0.27;;;;;;;19.96;57.87;96683.72;10368343;28;20033;-21
2022/06/14 21:52:37;;;;;;;0.63;0.30;;;;;;;19.95;57.94;96684.59;10388823;28;20287;-22
2022/06/14 21:57:47;;;;;;;0.40;0.40;;;;;;;19.91;57.86;96678.69;10390739;28;20038;-20
2022/06/14 22:02:49;;;;;;;0.40;0.40;;;;;;;19.91;57.97;96678.69;10367431;28;20125;-20
2022/06/14 22:07:49;;;;;;;0.30;0.30;;;;;;;19.92;58.23;96699.88;10367711;28;20049;-21
2022/06/14 22:12:50;;;;;;;0.40;0.37;;;;;;;19.91;60.39;96686.31;10365754;28;20407;-21
2022/06/14 22:17:50;;;;;;;0.10;0.10;;;;;;;20.22;58.67;96704.75;10367312;28;20062;-21
2022/06/14 22:22:50;;;;;;;0.20;0.20;;;;;;;20.16;58.42;96705.66;10366741;28;20303;-20
2022/06/14 22:27:51;;;;;;;0.60;0.30;;;;;;;20.05;57.74;96709.13;10367097;28;20037;-21
2022/06/14 22:32:52;;;;;;;0.40;0.40;;;;;;;20.00;57.91;96713.38;10379793;28;20299;-21
2022/06/14 22:37:52;;;;;;;0.55;0.32;;;;;;;19.97;57.88;96713.38;10392863;28;20546;-23
2022/06/14 22:42:53;;;;;;;0.30;0.30;;;;;;;19.96;58.08;96716.75;10374113;28;20074;-21
2022/06/14 22:47:54;;;;;;;0.50;0.50;;;;;;;19.94;57.90;96718.47;10374423;28;20092;-22
2022/06/14 22:52:54;;;;;;;0.30;0.30;;;;;;;19.94;57.91;96718.47;10397335;28;20506;-21
2022/06/14 22:58:00;;;;;;;0.35;0.30;;;;;;;19.93;57.90;96711.72;10396169;28;20050;-21
2022/06/14 23:03:01;;;;;;;0.30;0.30;;;;;;;19.91;57.79;96715.97;10374137;28;20049;-21
2022/06/14 23:08:01;;;;;;;0.30;0.30;;;;;;;19.96;59.67;96711.69;10374948;28;20507;-21
2022/06/14 23:13:01;;;;;;;0.40;0.40;;;;;;;20.19;58.82;96699.72;10376375;28;20026;-21
2022/06/14 23:18:02;;;;;;;0.25;0.25;;;;;;;20.20;58.18;96701.41;10376050;28;20037;-22
2022/06/14 23:23:02;;;;;;;0.20;0.20;;;;;;;20.07;57.82;96702.31;10375301;28;20397;-21
2022/06/14 23:28:04;;;;;;;0.47;0.47;;;;;;;20.02;57.88;96698.94;10375134;28;20026;-21
2022/06/14 23:33:04;;;;;;;0.30;0.30;;;;;;;19.98;58.28;96689.63;10385557;28;20041;-22
2022/06/14 23:38:05;;;;;;;0.47;0.23;;;;;;;19.97;57.88;96690.50;10390459;28;20103;-22
2022/06/14 23:43:05;;;;;;;0.35;0.35;;;;;;;19.96;57.99;96686.28;10374074;28;20448;-22
2022/06/14 23:48:05;;;;;;;0.25;0.25;;;;;;;19.94;57.93;96688.00;10375270;28;20468;-20
2022/06/14 23:53:06;;;;;;;0.68;0.30;;;;;;;19.94;57.93;96675.28;10399530;28;20373;-21
2022/06/14 23:58:07;;;;;;;0.50;0.40;;;;;;;19.95;57.85;96676.97;10393657;28;20396;-23
